sensor_id;sensor_type;location;lat;lon;timestamp;P1;durP1;ratioP1;P2;durP2;ratioP2
1682;SDS011;13252;53.596;10.060;2023-02-15T00:01:41;110.53;;;50.83;;
1682;SDS011;13252;53.596;10.060;2023-02-15T00:04:11;112.00;;;50.00;;
1682;SDS011;13252;53.596;10.060;2023-02-15T00:06:40;111.97;;;50.77;;
1682;SDS011;13252;53.596;10.060;2023-02-15T00:09:08;182.70;;;51.63;;
1682;SDS011;13252;53.596;10.060;2023-02-15T00:11:37;161.07;;;52.00;;
1682;SDS011;13252;53.596;10.060;2023-02-15T00:14:09;148.40;;;51.17;;
1682;SDS011;13252;53.596;10.060;2023-02-15T00:16:38;147.73;;;54.20;;
1682;SDS011;13252;53.596;10.060;2023-02-15T00:19:09;205.63;;;53.37;;
1682;SDS011;13252;53.596;10.060;2023-02-15T00:21:38;169.77;;;52.37;;
1682;SDS011;13252;53.596;10.060;2023-02-15T00:24:08;145.10;;;52.17;;
1682;SDS011;13252;53.596;10.060;2023-02-15T00:26:44;148.23;;;51.17;;
1682;SDS011;13252;53.596;10.060;2023-02-15T00:29:14;170.37;;;54.50;;
1682;SDS011;13252;53.596;10.060;2023-02-15T00:31:45;159.13;;;56.60;;
1682;SDS011;13252;53.596;10.060;2023-02-15T00:34:14;105.63;;;51.47;;
1682;SDS011;13252;53.596;10.060;2023-02-15T00:36:43;176.07;;;50.07;;
1682;SDS011;13252;53.596;10.060;2023-02-15T00:39:13;117.13;;;53.70;;
1682;SDS011;13252;53.596;10.060;2023-02-15T00:41:42;150.53;;;50.87;;
1682;SDS011;13252;53.596;10.060;2023-02-15T00:44:10;207.33;;;54.67;;
1682;SDS011;13252;53.596;10.060;2023-02-15T00:46:38;167.83;;;54.70;;
1682;SDS011;13252;53.596;10.060;2023-02-15T00:49:09;178.97;;;51.90;;
1682;SDS011;13252;53.596;10.060;2023-02-15T00:51:37;168.00;;;52.20;;
1682;SDS011;13252;53.596;10.060;2023-02-15T00:54:05;133.57;;;51.23;;
1682;SDS011;13252;53.596;10.060;2023-02-15T00:56:33;116.10;;;48.97;;
1682;SDS011;13252;53.596;10.060;2023-02-15T00:59:02;167.10;;;49.40;;
1682;SDS011;13252;53.596;10.060;2023-02-15T01:01:32;116.97;;;45.50;;
1682;SDS011;13252;53.596;10.060;2023-02-15T01:04:00;116.60;;;48.47;;
1682;SDS011;13252;53.596;10.060;2023-02-15T01:06:35;119.17;;;46.17;;
1682;SDS011;13252;53.596;10.060;2023-02-15T01:09:03;103.10;;;49.10;;
1682;SDS011;13252;53.596;10.060;2023-02-15T01:11:31;114.20;;;48.47;;
1682;SDS011;13252;53.596;10.060;2023-02-15T01:14:02;128.23;;;49.83;;
1682;SDS011;13252;53.596;10.060;2023-02-15T01:16:31;169.03;;;53.40;;
1682;SDS011;13252;53.596;10.060;2023-02-15T01:18:59;172.43;;;51.83;;
1682;SDS011;13252;53.596;10.060;2023-02-15T01:21:30;166.00;;;52.87;;
1682;SDS011;13252;53.596;10.060;2023-02-15T01:24:03;153.60;;;52.27;;
1682;SDS011;13252;53.596;10.060;2023-02-15T01:26:31;146.77;;;52.30;;
1682;SDS011;13252;53.596;10.060;2023-02-15T01:28:59;193.73;;;54.70;;
1682;SDS011;13252;53.596;10.060;2023-02-15T01:31:27;122.10;;;49.63;;
1682;SDS011;13252;53.596;10.060;2023-02-15T01:33:59;114.33;;;49.87;;
1682;SDS011;13252;53.596;10.060;2023-02-15T01:36:27;113.13;;;47.10;;
1682;SDS011;13252;53.596;10.060;2023-02-15T01:38:55;176.70;;;51.30;;
1682;SDS011;13252;53.596;10.060;2023-02-15T01:41:24;134.70;;;49.70;;
1682;SDS011;13252;53.596;10.060;2023-02-15T01:43:54;116.93;;;48.80;;
1682;SDS011;13252;53.596;10.060;2023-02-15T01:46:24;106.23;;;46.77;;
1682;SDS011;13252;53.596;10.060;2023-02-15T01:48:56;98.97;;;45.50;;
1682;SDS011;13252;53.596;10.060;2023-02-15T01:51:30;94.27;;;46.03;;
1682;SDS011;13252;53.596;10.060;2023-02-15T01:54:06;103.10;;;47.77;;
1682;SDS011;13252;53.596;10.060;2023-02-15T01:56:44;107.53;;;47.73;;
1682;SDS011;13252;53.596;10.060;2023-02-15T01:59:21;112.33;;;48.10;;
1682;SDS011;13252;53.596;10.060;2023-02-15T02:01:55;135.57;;;46.30;;
1682;SDS011;13252;53.596;10.060;2023-02-15T02:04:47;101.60;;;46.20;;
1682;SDS011;13252;53.596;10.060;2023-02-15T02:07:19;136.20;;;46.10;;
1682;SDS011;13252;53.596;10.060;2023-02-15T02:09:48;116.33;;;45.33;;
1682;SDS011;13252;53.596;10.060;2023-02-15T02:12:18;105.97;;;46.47;;
1682;SDS011;13252;53.596;10.060;2023-02-15T02:14:48;106.13;;;47.93;;
1682;SDS011;13252;53.596;10.060;2023-02-15T02:17:17;117.00;;;45.30;;
1682;SDS011;13252;53.596;10.060;2023-02-15T02:29:11;167.70;;;50.13;;
1682;SDS011;13252;53.596;10.060;2023-02-15T02:31:56;123.43;;;50.23;;
1682;SDS011;13252;53.596;10.060;2023-02-15T02:34:50;205.87;;;49.57;;
1682;SDS011;13252;53.596;10.060;2023-02-15T02:37:30;145.53;;;49.03;;
1682;SDS011;13252;53.596;10.060;2023-02-15T02:40:03;129.97;;;48.03;;
1682;SDS011;13252;53.596;10.060;2023-02-15T02:42:35;121.23;;;44.87;;
1682;SDS011;13252;53.596;10.060;2023-02-15T02:45:05;141.07;;;49.03;;
1682;SDS011;13252;53.596;10.060;2023-02-15T02:47:36;150.87;;;49.93;;
1682;SDS011;13252;53.596;10.060;2023-02-15T02:50:09;120.80;;;48.13;;
1682;SDS011;13252;53.596;10.060;2023-02-15T02:52:40;130.07;;;52.60;;
1682;SDS011;13252;53.596;10.060;2023-02-15T02:55:10;161.13;;;51.07;;
1682;SDS011;13252;53.596;10.060;2023-02-15T02:57:42;109.40;;;50.40;;
1682;SDS011;13252;53.596;10.060;2023-02-15T03:00:12;113.23;;;48.73;;
1682;SDS011;13252;53.596;10.060;2023-02-15T03:02:42;135.53;;;46.97;;
1682;SDS011;13252;53.596;10.060;2023-02-15T03:05:13;106.27;;;47.87;;
1682;SDS011;13252;53.596;10.060;2023-02-15T03:07:43;95.97;;;46.70;;
1682;SDS011;13252;53.596;10.060;2023-02-15T03:10:14;96.80;;;44.10;;
1682;SDS011;13252;53.596;10.060;2023-02-15T03:12:43;99.03;;;45.77;;
1682;SDS011;13252;53.596;10.060;2023-02-15T03:15:12;92.07;;;43.97;;
1682;SDS011;13252;53.596;10.060;2023-02-15T03:17:43;107.87;;;46.77;;
1682;SDS011;13252;53.596;10.060;2023-02-15T03:20:14;89.43;;;43.70;;
1682;SDS011;13252;53.596;10.060;2023-02-15T03:22:47;123.80;;;43.33;;
1682;SDS011;13252;53.596;10.060;2023-02-15T03:25:17;95.17;;;45.17;;
1682;SDS011;13252;53.596;10.060;2023-02-15T03:27:48;102.17;;;45.83;;
1682;SDS011;13252;53.596;10.060;2023-02-15T03:30:18;125.57;;;46.60;;
1682;SDS011;13252;53.596;10.060;2023-02-15T03:32:49;137.00;;;47.60;;
1682;SDS011;13252;53.596;10.060;2023-02-15T03:35:19;106.97;;;44.73;;
1682;SDS011;13252;53.596;10.060;2023-02-15T03:37:50;137.97;;;49.63;;
1682;SDS011;13252;53.596;10.060;2023-02-15T03:40:19;102.87;;;44.20;;
1682;SDS011;13252;53.596;10.060;2023-02-15T03:43:10;96.67;;;45.50;;
1682;SDS011;13252;53.596;10.060;2023-02-15T03:45:40;101.70;;;44.77;;
1682;SDS011;13252;53.596;10.060;2023-02-15T03:48:22;117.93;;;45.37;;
1682;SDS011;13252;53.596;10.060;2023-02-15T03:50:54;125.80;;;45.07;;
1682;SDS011;13252;53.596;10.060;2023-02-15T03:53:42;84.53;;;42.60;;
1682;SDS011;13252;53.596;10.060;2023-02-15T03:56:10;127.43;;;46.23;;
1682;SDS011;13252;53.596;10.060;2023-02-15T03:58:38;109.80;;;46.83;;
1682;SDS011;13252;53.596;10.060;2023-02-15T04:01:25;100.13;;;45.87;;
1682;SDS011;13252;53.596;10.060;2023-02-15T04:04:36;109.50;;;46.87;;
1682;SDS011;13252;53.596;10.060;2023-02-15T04:07:05;98.17;;;45.47;;
1682;SDS011;13252;53.596;10.060;2023-02-15T04:09:34;112.63;;;45.00;;
1682;SDS011;13252;53.596;10.060;2023-02-15T04:12:19;143.27;;;45.93;;
1682;SDS011;13252;53.596;10.060;2023-02-15T04:14:47;131.87;;;47.30;;
1682;SDS011;13252;53.596;10.060;2023-02-15T04:17:32;88.57;;;43.73;;
1682;SDS011;13252;53.596;10.060;2023-02-15T04:20:02;96.07;;;46.17;;
1682;SDS011;13252;53.596;10.060;2023-02-15T04:22:47;118.57;;;44.50;;
1682;SDS011;13252;53.596;10.060;2023-02-15T04:25:33;118.37;;;47.77;;
1682;SDS011;13252;53.596;10.060;2023-02-15T04:28:01;106.50;;;44.67;;
1682;SDS011;13252;53.596;10.060;2023-02-15T04:30:28;81.77;;;44.10;;
1682;SDS011;13252;53.596;10.060;2023-02-15T04:32:56;121.03;;;47.00;;
1682;SDS011;13252;53.596;10.060;2023-02-15T04:35:25;103.87;;;43.80;;
1682;SDS011;13252;53.596;10.060;2023-02-15T04:37:53;98.97;;;46.83;;
1682;SDS011;13252;53.596;10.060;2023-02-15T04:40:22;111.97;;;46.57;;
1682;SDS011;13252;53.596;10.060;2023-02-15T04:42:49;107.93;;;45.87;;
1682;SDS011;13252;53.596;10.060;2023-02-15T04:45:17;106.20;;;43.23;;
1682;SDS011;13252;53.596;10.060;2023-02-15T04:47:45;95.90;;;45.37;;
1682;SDS011;13252;53.596;10.060;2023-02-15T04:50:13;125.63;;;46.30;;
1682;SDS011;13252;53.596;10.060;2023-02-15T04:52:42;110.20;;;39.33;;
1682;SDS011;13252;53.596;10.060;2023-02-15T04:55:10;95.80;;;41.27;;
1682;SDS011;13252;53.596;10.060;2023-02-15T04:57:38;72.03;;;37.77;;
1682;SDS011;13252;53.596;10.060;2023-02-15T05:00:06;118.53;;;39.30;;
1682;SDS011;13252;53.596;10.060;2023-02-15T05:02:35;98.13;;;41.50;;
1682;SDS011;13252;53.596;10.060;2023-02-15T05:05:04;99.90;;;40.47;;
1682;SDS011;13252;53.596;10.060;2023-02-15T05:07:32;104.50;;;37.50;;
1682;SDS011;13252;53.596;10.060;2023-02-15T05:10:01;101.93;;;39.83;;
1682;SDS011;13252;53.596;10.060;2023-02-15T05:12:28;109.13;;;41.10;;
1682;SDS011;13252;53.596;10.060;2023-02-15T05:14:56;150.87;;;43.67;;
1682;SDS011;13252;53.596;10.060;2023-02-15T05:17:24;114.67;;;42.53;;
1682;SDS011;13252;53.596;10.060;2023-02-15T05:19:51;76.67;;;41.13;;
1682;SDS011;13252;53.596;10.060;2023-02-15T05:22:19;92.27;;;43.70;;
1682;SDS011;13252;53.596;10.060;2023-02-15T05:24:47;101.63;;;43.50;;
1682;SDS011;13252;53.596;10.060;2023-02-15T05:27:33;95.30;;;43.37;;
1682;SDS011;13252;53.596;10.060;2023-02-15T05:30:18;96.10;;;42.10;;
1682;SDS011;13252;53.596;10.060;2023-02-15T05:32:47;150.13;;;41.60;;
1682;SDS011;13252;53.596;10.060;2023-02-15T05:35:15;176.67;;;43.07;;
1682;SDS011;13252;53.596;10.060;2023-02-15T05:37:43;107.80;;;42.57;;
1682;SDS011;13252;53.596;10.060;2023-02-15T05:40:11;126.53;;;41.20;;
1682;SDS011;13252;53.596;10.060;2023-02-15T05:42:40;121.53;;;40.80;;
1682;SDS011;13252;53.596;10.060;2023-02-15T05:45:08;104.37;;;40.60;;
1682;SDS011;13252;53.596;10.060;2023-02-15T05:47:36;89.47;;;38.87;;
1682;SDS011;13252;53.596;10.060;2023-02-15T05:50:04;158.67;;;40.60;;
1682;SDS011;13252;53.596;10.060;2023-02-15T05:52:33;97.03;;;37.70;;
1682;SDS011;13252;53.596;10.060;2023-02-15T05:55:00;89.63;;;38.50;;
1682;SDS011;13252;53.596;10.060;2023-02-15T05:57:28;143.33;;;39.97;;
1682;SDS011;13252;53.596;10.060;2023-02-15T05:59:57;141.93;;;42.20;;
1682;SDS011;13252;53.596;10.060;2023-02-15T06:02:25;99.40;;;39.17;;
1682;SDS011;13252;53.596;10.060;2023-02-15T06:04:53;133.53;;;40.07;;
1682;SDS011;13252;53.596;10.060;2023-02-15T06:07:20;110.90;;;35.80;;
1682;SDS011;13252;53.596;10.060;2023-02-15T06:09:48;73.00;;;36.87;;
1682;SDS011;13252;53.596;10.060;2023-02-15T06:12:16;124.30;;;39.10;;
1682;SDS011;13252;53.596;10.060;2023-02-15T06:14:43;121.53;;;38.23;;
1682;SDS011;13252;53.596;10.060;2023-02-15T06:17:13;144.40;;;36.10;;
1682;SDS011;13252;53.596;10.060;2023-02-15T06:19:40;111.83;;;35.73;;
1682;SDS011;13252;53.596;10.060;2023-02-15T06:22:08;149.77;;;39.30;;
1682;SDS011;13252;53.596;10.060;2023-02-15T06:24:36;112.93;;;38.27;;
1682;SDS011;13252;53.596;10.060;2023-02-15T06:27:03;113.43;;;37.30;;
1682;SDS011;13252;53.596;10.060;2023-02-15T06:29:31;87.57;;;37.37;;
1682;SDS011;13252;53.596;10.060;2023-02-15T06:31:59;91.57;;;38.30;;
1682;SDS011;13252;53.596;10.060;2023-02-15T06:34:28;76.33;;;39.20;;
1682;SDS011;13252;53.596;10.060;2023-02-15T06:36:56;95.23;;;37.27;;
1682;SDS011;13252;53.596;10.060;2023-02-15T06:39:23;78.90;;;37.60;;
1682;SDS011;13252;53.596;10.060;2023-02-15T06:41:51;114.60;;;39.03;;
1682;SDS011;13252;53.596;10.060;2023-02-15T06:44:19;76.63;;;37.30;;
1682;SDS011;13252;53.596;10.060;2023-02-15T06:46:47;145.70;;;37.17;;
1682;SDS011;13252;53.596;10.060;2023-02-15T06:49:14;91.17;;;35.33;;
1682;SDS011;13252;53.596;10.060;2023-02-15T06:51:43;107.30;;;37.80;;
1682;SDS011;13252;53.596;10.060;2023-02-15T06:54:11;87.93;;;38.70;;
1682;SDS011;13252;53.596;10.060;2023-02-15T06:56:39;92.60;;;37.43;;
1682;SDS011;13252;53.596;10.060;2023-02-15T06:59:07;74.57;;;38.00;;
1682;SDS011;13252;53.596;10.060;2023-02-15T07:01:34;100.47;;;38.60;;
1682;SDS011;13252;53.596;10.060;2023-02-15T07:04:03;92.80;;;39.90;;
1682;SDS011;13252;53.596;10.060;2023-02-15T07:06:31;84.93;;;38.00;;
1682;SDS011;13252;53.596;10.060;2023-02-15T07:09:00;134.70;;;38.20;;
1682;SDS011;13252;53.596;10.060;2023-02-15T07:11:28;107.87;;;35.30;;
1682;SDS011;13252;53.596;10.060;2023-02-15T07:14:22;119.93;;;38.80;;
1682;SDS011;13252;53.596;10.060;2023-02-15T07:16:50;132.80;;;37.17;;
1682;SDS011;13252;53.596;10.060;2023-02-15T07:19:18;107.33;;;36.47;;
1682;SDS011;13252;53.596;10.060;2023-02-15T07:21:45;97.80;;;38.00;;
1682;SDS011;13252;53.596;10.060;2023-02-15T07:24:14;80.70;;;36.80;;
1682;SDS011;13252;53.596;10.060;2023-02-15T07:26:42;151.77;;;38.87;;
1682;SDS011;13252;53.596;10.060;2023-02-15T07:29:09;83.37;;;37.40;;
1682;SDS011;13252;53.596;10.060;2023-02-15T07:31:37;101.23;;;39.30;;
1682;SDS011;13252;53.596;10.060;2023-02-15T07:34:05;91.20;;;36.80;;
1682;SDS011;13252;53.596;10.060;2023-02-15T07:36:34;129.17;;;36.07;;
1682;SDS011;13252;53.596;10.060;2023-02-15T07:39:01;129.33;;;39.33;;
1682;SDS011;13252;53.596;10.060;2023-02-15T07:41:31;71.07;;;35.13;;
1682;SDS011;13252;53.596;10.060;2023-02-15T07:43:58;87.13;;;37.17;;
1682;SDS011;13252;53.596;10.060;2023-02-15T07:46:26;95.73;;;37.53;;
1682;SDS011;13252;53.596;10.060;2023-02-15T07:48:54;112.40;;;37.17;;
1682;SDS011;13252;53.596;10.060;2023-02-15T07:51:22;131.33;;;38.13;;
1682;SDS011;13252;53.596;10.060;2023-02-15T07:53:49;93.20;;;38.70;;
1682;SDS011;13252;53.596;10.060;2023-02-15T07:56:18;73.67;;;36.60;;
1682;SDS011;13252;53.596;10.060;2023-02-15T07:58:47;81.13;;;38.50;;
1682;SDS011;13252;53.596;10.060;2023-02-15T08:01:22;105.97;;;39.10;;
1682;SDS011;13252;53.596;10.060;2023-02-15T08:03:53;116.07;;;39.13;;
1682;SDS011;13252;53.596;10.060;2023-02-15T08:06:21;105.93;;;39.67;;
1682;SDS011;13252;53.596;10.060;2023-02-15T08:08:50;121.00;;;37.27;;
1682;SDS011;13252;53.596;10.060;2023-02-15T08:11:19;97.37;;;38.33;;
1682;SDS011;13252;53.596;10.060;2023-02-15T08:14:00;136.97;;;37.93;;
1682;SDS011;13252;53.596;10.060;2023-02-15T08:16:31;69.50;;;34.67;;
1682;SDS011;13252;53.596;10.060;2023-02-15T08:19:01;70.93;;;38.00;;
1682;SDS011;13252;53.596;10.060;2023-02-15T08:21:31;91.20;;;37.50;;
1682;SDS011;13252;53.596;10.060;2023-02-15T08:23:59;97.23;;;38.33;;
1682;SDS011;13252;53.596;10.060;2023-02-15T08:26:27;87.33;;;38.60;;
1682;SDS011;13252;53.596;10.060;2023-02-15T08:28:56;83.83;;;39.77;;
1682;SDS011;13252;53.596;10.060;2023-02-15T08:31:26;77.27;;;35.23;;
1682;SDS011;13252;53.596;10.060;2023-02-15T08:33:55;82.80;;;35.83;;
1682;SDS011;13252;53.596;10.060;2023-02-15T08:36:24;90.53;;;34.13;;
1682;SDS011;13252;53.596;10.060;2023-02-15T08:38:53;132.43;;;38.57;;
1682;SDS011;13252;53.596;10.060;2023-02-15T08:41:21;96.27;;;36.33;;
1682;SDS011;13252;53.596;10.060;2023-02-15T08:43:51;85.13;;;36.23;;
1682;SDS011;13252;53.596;10.060;2023-02-15T08:46:20;67.47;;;36.43;;
1682;SDS011;13252;53.596;10.060;2023-02-15T08:48:49;55.67;;;34.60;;
1682;SDS011;13252;53.596;10.060;2023-02-15T08:51:17;108.00;;;37.07;;
1682;SDS011;13252;53.596;10.060;2023-02-15T08:53:47;82.20;;;38.60;;
1682;SDS011;13252;53.596;10.060;2023-02-15T08:56:16;65.50;;;38.17;;
1682;SDS011;13252;53.596;10.060;2023-02-15T08:58:45;72.63;;;35.43;;
1682;SDS011;13252;53.596;10.060;2023-02-15T09:01:13;112.23;;;36.00;;
1682;SDS011;13252;53.596;10.060;2023-02-15T09:03:44;115.20;;;38.77;;
1682;SDS011;13252;53.596;10.060;2023-02-15T09:06:14;74.73;;;36.90;;
1682;SDS011;13252;53.596;10.060;2023-02-15T09:08:42;81.07;;;37.33;;
1682;SDS011;13252;53.596;10.060;2023-02-15T09:11:11;61.30;;;35.77;;
1682;SDS011;13252;53.596;10.060;2023-02-15T09:13:39;65.03;;;36.60;;
1682;SDS011;13252;53.596;10.060;2023-02-15T09:16:08;90.10;;;36.27;;
1682;SDS011;13252;53.596;10.060;2023-02-15T09:18:37;80.57;;;37.77;;
1682;SDS011;13252;53.596;10.060;2023-02-15T09:21:06;64.07;;;35.30;;
1682;SDS011;13252;53.596;10.060;2023-02-15T09:23:37;67.97;;;36.93;;
1682;SDS011;13252;53.596;10.060;2023-02-15T09:26:05;70.23;;;37.57;;
1682;SDS011;13252;53.596;10.060;2023-02-15T09:28:34;70.90;;;37.17;;
1682;SDS011;13252;53.596;10.060;2023-02-15T09:31:09;93.90;;;40.57;;
1682;SDS011;13252;53.596;10.060;2023-02-15T09:33:38;66.57;;;37.30;;
1682;SDS011;13252;53.596;10.060;2023-02-15T09:36:14;72.37;;;38.70;;
1682;SDS011;13252;53.596;10.060;2023-02-15T09:38:45;80.53;;;37.03;;
1682;SDS011;13252;53.596;10.060;2023-02-15T09:41:18;64.53;;;35.60;;
1682;SDS011;13252;53.596;10.060;2023-02-15T09:44:03;74.20;;;38.20;;
1682;SDS011;13252;53.596;10.060;2023-02-15T09:46:50;65.77;;;37.53;;
1682;SDS011;13252;53.596;10.060;2023-02-15T09:49:32;64.40;;;38.13;;
1682;SDS011;13252;53.596;10.060;2023-02-15T09:52:11;68.20;;;37.30;;
1682;SDS011;13252;53.596;10.060;2023-02-15T09:54:50;63.00;;;38.10;;
1682;SDS011;13252;53.596;10.060;2023-02-15T09:57:26;65.60;;;38.13;;
1682;SDS011;13252;53.596;10.060;2023-02-15T10:00:00;68.23;;;39.80;;
1682;SDS011;13252;53.596;10.060;2023-02-15T10:02:42;75.00;;;39.43;;
1682;SDS011;13252;53.596;10.060;2023-02-15T10:05:21;74.80;;;39.17;;
1682;SDS011;13252;53.596;10.060;2023-02-15T10:08:04;69.77;;;37.73;;
1682;SDS011;13252;53.596;10.060;2023-02-15T10:10:45;67.30;;;39.97;;
1682;SDS011;13252;53.596;10.060;2023-02-15T10:13:23;59.03;;;37.80;;
1682;SDS011;13252;53.596;10.060;2023-02-15T10:16:00;62.60;;;37.13;;
1682;SDS011;13252;53.596;10.060;2023-02-15T10:18:42;59.33;;;38.47;;
1682;SDS011;13252;53.596;10.060;2023-02-15T10:21:18;71.30;;;42.47;;
1682;SDS011;13252;53.596;10.060;2023-02-15T10:23:59;65.60;;;38.00;;
1682;SDS011;13252;53.596;10.060;2023-02-15T10:26:40;65.87;;;39.67;;
1682;SDS011;13252;53.596;10.060;2023-02-15T10:29:12;68.07;;;40.13;;
1682;SDS011;13252;53.596;10.060;2023-02-15T10:31:46;76.87;;;41.70;;
1682;SDS011;13252;53.596;10.060;2023-02-15T10:34:17;70.07;;;38.17;;
1682;SDS011;13252;53.596;10.060;2023-02-15T10:37:00;61.33;;;40.93;;
1682;SDS011;13252;53.596;10.060;2023-02-15T10:39:40;61.73;;;39.57;;
1682;SDS011;13252;53.596;10.060;2023-02-15T10:42:15;77.50;;;41.20;;
1682;SDS011;13252;53.596;10.060;2023-02-15T10:44:51;67.00;;;39.70;;
1682;SDS011;13252;53.596;10.060;2023-02-15T10:47:35;64.70;;;41.27;;
1682;SDS011;13252;53.596;10.060;2023-02-15T10:50:14;68.27;;;41.93;;
1682;SDS011;13252;53.596;10.060;2023-02-15T10:52:59;59.57;;;40.37;;
1682;SDS011;13252;53.596;10.060;2023-02-15T10:55:40;65.77;;;42.60;;
1682;SDS011;13252;53.596;10.060;2023-02-15T10:58:17;69.50;;;42.70;;
1682;SDS011;13252;53.596;10.060;2023-02-15T11:00:51;69.43;;;44.60;;
1682;SDS011;13252;53.596;10.060;2023-02-15T11:03:35;74.60;;;42.27;;
1682;SDS011;13252;53.596;10.060;2023-02-15T11:06:08;67.47;;;42.50;;
1682;SDS011;13252;53.596;10.060;2023-02-15T11:08:39;70.80;;;40.90;;
1682;SDS011;13252;53.596;10.060;2023-02-15T11:11:09;64.87;;;42.23;;
1682;SDS011;13252;53.596;10.060;2023-02-15T11:13:43;66.73;;;43.07;;
1682;SDS011;13252;53.596;10.060;2023-02-15T11:16:15;65.90;;;44.17;;
1682;SDS011;13252;53.596;10.060;2023-02-15T11:18:45;70.07;;;45.90;;
1682;SDS011;13252;53.596;10.060;2023-02-15T11:21:17;66.70;;;40.67;;
1682;SDS011;13252;53.596;10.060;2023-02-15T11:23:48;60.00;;;41.30;;
1682;SDS011;13252;53.596;10.060;2023-02-15T11:26:17;66.50;;;43.90;;
1682;SDS011;13252;53.596;10.060;2023-02-15T11:28:49;66.47;;;44.77;;
1682;SDS011;13252;53.596;10.060;2023-02-15T11:31:21;66.83;;;41.30;;
1682;SDS011;13252;53.596;10.060;2023-02-15T11:33:50;64.10;;;42.53;;
1682;SDS011;13252;53.596;10.060;2023-02-15T11:36:20;60.53;;;41.87;;
1682;SDS011;13252;53.596;10.060;2023-02-15T11:38:50;63.67;;;42.00;;
1682;SDS011;13252;53.596;10.060;2023-02-15T11:41:22;68.03;;;44.47;;
1682;SDS011;13252;53.596;10.060;2023-02-15T11:43:55;63.70;;;44.40;;
1682;SDS011;13252;53.596;10.060;2023-02-15T11:46:26;72.87;;;44.83;;
1682;SDS011;13252;53.596;10.060;2023-02-15T11:48:55;67.73;;;42.67;;
1682;SDS011;13252;53.596;10.060;2023-02-15T11:51:22;68.00;;;43.07;;
1682;SDS011;13252;53.596;10.060;2023-02-15T11:53:50;65.73;;;45.17;;
1682;SDS011;13252;53.596;10.060;2023-02-15T11:56:19;67.67;;;44.60;;
1682;SDS011;13252;53.596;10.060;2023-02-15T11:58:49;68.77;;;43.63;;
1682;SDS011;13252;53.596;10.060;2023-02-15T12:01:21;60.07;;;42.20;;
1682;SDS011;13252;53.596;10.060;2023-02-15T12:03:52;60.10;;;41.57;;
1682;SDS011;13252;53.596;10.060;2023-02-15T12:06:23;63.37;;;41.67;;
1682;SDS011;13252;53.596;10.060;2023-02-15T12:08:59;67.57;;;43.83;;
1682;SDS011;13252;53.596;10.060;2023-02-15T12:11:32;65.37;;;44.50;;
1682;SDS011;13252;53.596;10.060;2023-02-15T12:14:03;70.13;;;45.73;;
1682;SDS011;13252;53.596;10.060;2023-02-15T12:16:34;68.50;;;45.00;;
1682;SDS011;13252;53.596;10.060;2023-02-15T12:19:12;61.27;;;42.23;;
1682;SDS011;13252;53.596;10.060;2023-02-15T12:21:49;62.00;;;42.20;;
1682;SDS011;13252;53.596;10.060;2023-02-15T12:24:18;62.63;;;43.27;;
1682;SDS011;13252;53.596;10.060;2023-02-15T12:26:55;62.40;;;40.80;;
1682;SDS011;13252;53.596;10.060;2023-02-15T12:29:25;64.53;;;42.80;;
1682;SDS011;13252;53.596;10.060;2023-02-15T12:31:56;60.43;;;41.50;;
1682;SDS011;13252;53.596;10.060;2023-02-15T12:34:25;58.40;;;41.90;;
1682;SDS011;13252;53.596;10.060;2023-02-15T12:36:55;61.47;;;42.50;;
1682;SDS011;13252;53.596;10.060;2023-02-15T12:39:25;62.50;;;41.20;;
1682;SDS011;13252;53.596;10.060;2023-02-15T12:41:59;58.63;;;41.47;;
1682;SDS011;13252;53.596;10.060;2023-02-15T12:44:29;53.60;;;39.37;;
1682;SDS011;13252;53.596;10.060;2023-02-15T12:46:59;53.30;;;39.47;;
1682;SDS011;13252;53.596;10.060;2023-02-15T12:49:30;58.53;;;39.03;;
1682;SDS011;13252;53.596;10.060;2023-02-15T12:51:58;50.77;;;36.30;;
1682;SDS011;13252;53.596;10.060;2023-02-15T12:54:31;48.90;;;37.20;;
1682;SDS011;13252;53.596;10.060;2023-02-15T12:57:13;48.57;;;37.10;;
1682;SDS011;13252;53.596;10.060;2023-02-15T12:59:53;51.17;;;39.43;;
1682;SDS011;13252;53.596;10.060;2023-02-15T13:02:25;55.67;;;41.93;;
1682;SDS011;13252;53.596;10.060;2023-02-15T13:04:55;59.27;;;41.23;;
1682;SDS011;13252;53.596;10.060;2023-02-15T13:07:28;56.20;;;38.90;;
1682;SDS011;13252;53.596;10.060;2023-02-15T13:09:58;72.57;;;39.30;;
1682;SDS011;13252;53.596;10.060;2023-02-15T13:12:27;49.97;;;38.37;;
1682;SDS011;13252;53.596;10.060;2023-02-15T13:14:57;51.73;;;39.70;;
1682;SDS011;13252;53.596;10.060;2023-02-15T13:17:27;52.80;;;39.70;;
1682;SDS011;13252;53.596;10.060;2023-02-15T13:19:56;51.40;;;38.83;;
1682;SDS011;13252;53.596;10.060;2023-02-15T13:22:27;54.77;;;40.63;;
1682;SDS011;13252;53.596;10.060;2023-02-15T13:25:01;51.97;;;39.73;;
1682;SDS011;13252;53.596;10.060;2023-02-15T13:27:33;47.47;;;39.17;;
1682;SDS011;13252;53.596;10.060;2023-02-15T13:30:03;42.30;;;35.20;;
1682;SDS011;13252;53.596;10.060;2023-02-15T13:32:39;45.67;;;36.57;;
1682;SDS011;13252;53.596;10.060;2023-02-15T13:35:10;47.87;;;37.77;;
1682;SDS011;13252;53.596;10.060;2023-02-15T13:37:45;50.50;;;38.40;;
1682;SDS011;13252;53.596;10.060;2023-02-15T13:40:22;46.70;;;36.87;;
1682;SDS011;13252;53.596;10.060;2023-02-15T13:42:53;53.47;;;38.73;;
1682;SDS011;13252;53.596;10.060;2023-02-15T13:45:28;43.67;;;35.87;;
1682;SDS011;13252;53.596;10.060;2023-02-15T13:48:03;43.47;;;32.50;;
1682;SDS011;13252;53.596;10.060;2023-02-15T13:50:41;49.23;;;38.97;;
1682;SDS011;13252;53.596;10.060;2023-02-15T13:53:23;48.17;;;38.10;;
1682;SDS011;13252;53.596;10.060;2023-02-15T13:56:02;53.40;;;39.57;;
1682;SDS011;13252;53.596;10.060;2023-02-15T13:58:38;48.60;;;38.03;;
1682;SDS011;13252;53.596;10.060;2023-02-15T14:01:19;47.07;;;37.93;;
1682;SDS011;13252;53.596;10.060;2023-02-15T14:03:55;46.17;;;36.67;;
1682;SDS011;13252;53.596;10.060;2023-02-15T14:06:36;39.80;;;31.60;;
1682;SDS011;13252;53.596;10.060;2023-02-15T14:09:14;41.03;;;33.20;;
1682;SDS011;13252;53.596;10.060;2023-02-15T14:11:49;40.17;;;34.37;;
1682;SDS011;13252;53.596;10.060;2023-02-15T14:14:44;43.30;;;35.33;;
1682;SDS011;13252;53.596;10.060;2023-02-15T14:17:22;49.57;;;36.07;;
1682;SDS011;13252;53.596;10.060;2023-02-15T14:19:54;46.53;;;34.30;;
1682;SDS011;13252;53.596;10.060;2023-02-15T14:22:26;42.33;;;32.83;;
1682;SDS011;13252;53.596;10.060;2023-02-15T14:25:00;39.50;;;32.57;;
1682;SDS011;13252;53.596;10.060;2023-02-15T14:27:39;38.50;;;31.17;;
1682;SDS011;13252;53.596;10.060;2023-02-15T14:30:13;38.53;;;29.73;;
1682;SDS011;13252;53.596;10.060;2023-02-15T14:32:43;42.10;;;31.50;;
1682;SDS011;13252;53.596;10.060;2023-02-15T14:35:14;40.20;;;31.40;;
1682;SDS011;13252;53.596;10.060;2023-02-15T14:37:45;37.47;;;30.40;;
1682;SDS011;13252;53.596;10.060;2023-02-15T14:40:18;34.63;;;29.57;;
1682;SDS011;13252;53.596;10.060;2023-02-15T14:43:07;41.13;;;29.37;;
1682;SDS011;13252;53.596;10.060;2023-02-15T14:45:39;34.33;;;27.40;;
1682;SDS011;13252;53.596;10.060;2023-02-15T14:48:11;38.43;;;27.90;;
1682;SDS011;13252;53.596;10.060;2023-02-15T14:50:45;36.73;;;27.57;;
1682;SDS011;13252;53.596;10.060;2023-02-15T14:53:22;38.43;;;29.07;;